sensor_id;sensor_type;location;lat;lon;timestamp;pressure;altitude;pressure_sealevel;temperature;humidity
10587;BME280;5341;47.606;7.576;2023-02-18T00:01:09;100108.00;;;13.15;71.91
10587;BME280;5341;47.606;7.576;2023-02-18T00:03:37;100103.66;;;13.14;72.24
10587;BME280;5341;47.606;7.576;2023-02-18T00:06:13;100106.16;;;13.16;72.16
10587;BME280;5341;47.606;7.576;2023-02-18T00:08:41;100098.94;;;13.16;71.71
10587;BME280;5341;47.606;7.576;2023-02-18T00:11:09;100090.72;;;13.18;72.17
10587;BME280;5341;47.606;7.576;2023-02-18T00:13:37;100092.56;;;13.17;71.98
10587;BME280;5341;47.606;7.576;2023-02-18T00:16:07;100086.34;;;13.17;72.09
10587;BME280;5341;47.606;7.576;2023-02-18T00:18:35;100089.88;;;13.17;71.91
10587;BME280;5341;47.606;7.576;2023-02-18T00:21:03;100091.72;;;13.17;72.29
10587;BME280;5341;47.606;7.576;2023-02-18T00:23:32;100096.09;;;13.18;72.36
10587;BME280;5341;47.606;7.576;2023-02-18T00:26:02;100096.25;;;13.16;72.15
10587;BME280;5341;47.606;7.576;2023-02-18T00:28:29;100090.72;;;13.18;72.29
10587;BME280;5341;47.606;7.576;2023-02-18T00:30:59;100095.25;;;13.17;72.17
10587;BME280;5341;47.606;7.576;2023-02-18T00:33:26;100097.94;;;13.17;71.97
10587;BME280;5341;47.606;7.576;2023-02-18T00:36:00;100091.59;;;13.18;72.10
10587;BME280;5341;47.606;7.576;2023-02-18T00:38:28;100092.56;;;13.17;72.38
10587;BME280;5341;47.606;7.576;2023-02-18T00:40:57;100090.03;;;13.16;72.37
10587;BME280;5341;47.606;7.576;2023-02-18T00:43:25;100088.38;;;13.15;72.07
10587;BME280;5341;47.606;7.576;2023-02-18T00:45:52;100088.19;;;13.16;72.43
10587;BME280;5341;47.606;7.576;2023-02-18T00:48:20;100080.84;;;13.18;71.98
10587;BME280;5341;47.606;7.576;2023-02-18T00:50:47;100082.50;;;13.19;71.94
10587;BME280;5341;47.606;7.576;2023-02-18T00:53:15;100075.16;;;13.22;71.90
10587;BME280;5341;47.606;7.576;2023-02-18T00:55:45;100069.63;;;13.23;71.81
10587;BME280;5341;47.606;7.576;2023-02-18T00:58:15;100074.16;;;13.23;71.33
10587;BME280;5341;47.606;7.576;2023-02-18T01:00:43;100061.56;;;13.23;71.57
10587;BME280;5341;47.606;7.576;2023-02-18T01:03:12;100057.84;;;13.24;71.42
10587;BME280;5341;47.606;7.576;2023-02-18T01:05:40;100060.53;;;13.24;71.42
10587;BME280;5341;47.606;7.576;2023-02-18T01:08:09;100065.91;;;13.24;71.28
10587;BME280;5341;47.606;7.576;2023-02-18T01:10:41;100061.56;;;13.23;71.16
10587;BME280;5341;47.606;7.576;2023-02-18T01:13:09;100056.19;;;13.23;71.17
10587;BME280;5341;47.606;7.576;2023-02-18T01:15:40;100063.41;;;13.23;71.16
10587;BME280;5341;47.606;7.576;2023-02-18T01:18:09;100057.03;;;13.24;71.02
10587;BME280;5341;47.606;7.576;2023-02-18T01:20:39;100056.00;;;13.25;71.10
10587;BME280;5341;47.606;7.576;2023-02-18T01:23:10;100051.47;;;13.25;70.77
10587;BME280;5341;47.606;7.576;2023-02-18T01:25:37;100051.31;;;13.27;70.92
10587;BME280;5341;47.606;7.576;2023-02-18T01:28:08;100054.81;;;13.27;71.16
10587;BME280;5341;47.606;7.576;2023-02-18T01:30:36;100053.16;;;13.26;71.11
10587;BME280;5341;47.606;7.576;2023-02-18T01:33:05;100054.00;;;13.27;70.90
10587;BME280;5341;47.606;7.576;2023-02-18T01:35:33;100053.50;;;13.23;71.04
10587;BME280;5341;47.606;7.576;2023-02-18T01:38:03;100047.28;;;13.23;71.16
10587;BME280;5341;47.606;7.576;2023-02-18T01:40:31;100044.44;;;13.24;70.93
10587;BME280;5341;47.606;7.576;2023-02-18T01:42:59;100032.19;;;13.22;71.17
10587;BME280;5341;47.606;7.576;2023-02-18T01:45:48;100033.00;;;13.22;70.82
10587;BME280;5341;47.606;7.576;2023-02-18T01:48:21;100030.31;;;13.22;71.09
10587;BME280;5341;47.606;7.576;2023-02-18T01:50:53;100033.19;;;13.21;70.94
10587;BME280;5341;47.606;7.576;2023-02-18T01:53:26;100034.88;;;13.22;70.97
10587;BME280;5341;47.606;7.576;2023-02-18T01:55:56;100036.53;;;13.23;70.86
10587;BME280;5341;47.606;7.576;2023-02-18T01:58:25;100034.88;;;13.22;70.97
10587;BME280;5341;47.606;7.576;2023-02-18T02:00:52;100025.78;;;13.23;70.76
10587;BME280;5341;47.606;7.576;2023-02-18T02:03:21;100030.16;;;13.24;70.99
10587;BME280;5341;47.606;7.576;2023-02-18T02:05:50;100023.94;;;13.23;70.57
10587;BME280;5341;47.606;7.576;2023-02-18T02:08:17;100020.25;;;13.24;70.65
10587;BME280;5341;47.606;7.576;2023-02-18T02:10:58;100025.44;;;13.26;70.81
10587;BME280;5341;47.606;7.576;2023-02-18T02:13:31;100024.59;;;13.25;70.61
10587;BME280;5341;47.606;7.576;2023-02-18T02:16:05;100014.69;;;13.26;70.30
10587;BME280;5341;47.606;7.576;2023-02-18T02:18:46;100009.16;;;13.27;70.23
10587;BME280;5341;47.606;7.576;2023-02-18T02:21:39;100014.53;;;13.27;70.27
10587;BME280;5341;47.606;7.576;2023-02-18T02:24:39;100018.06;;;13.28;70.11
10587;BME280;5341;47.606;7.576;2023-02-18T02:27:17;100010.16;;;13.26;70.06
10587;BME280;5341;47.606;7.576;2023-02-18T02:30:07;100009.34;;;13.26;70.30
10587;BME280;5341;47.606;7.576;2023-02-18T02:35:50;100004.97;;;13.25;70.01
10587;BME280;5341;47.606;7.576;2023-02-18T02:38:25;100003.13;;;13.25;70.11
10587;BME280;5341;47.606;7.576;2023-02-18T02:41:02;99994.22;;;13.25;69.92
10587;BME280;5341;47.606;7.576;2023-02-18T02:43:47;100000.44;;;13.25;69.84
10587;BME280;5341;47.606;7.576;2023-02-18T02:46:22;99996.91;;;13.25;69.80
10587;BME280;5341;47.606;7.576;2023-02-18T02:48:57;99989.84;;;13.24;69.91
10587;BME280;5341;47.606;7.576;2023-02-18T02:51:34;99991.53;;;13.25;69.76
10587;BME280;5341;47.606;7.576;2023-02-18T02:54:12;99989.69;;;13.25;69.78
10587;BME280;5341;47.606;7.576;2023-02-18T02:56:39;99992.53;;;13.24;69.75
10587;BME280;5341;47.606;7.576;2023-02-18T02:59:12;99989.84;;;13.24;69.66
10587;BME280;5341;47.606;7.576;2023-02-18T03:01:53;99990.88;;;13.23;69.82
10587;BME280;5341;47.606;7.576;2023-02-18T03:04:45;99985.50;;;13.23;69.89
10587;BME280;5341;47.606;7.576;2023-02-18T03:07:38;99990.88;;;13.23;69.68
10587;BME280;5341;47.606;7.576;2023-02-18T03:10:29;99986.50;;;13.22;69.81
10587;BME280;5341;47.606;7.576;2023-02-18T03:13:04;99980.28;;;13.21;70.01
10587;BME280;5341;47.606;7.576;2023-02-18T03:15:43;99985.66;;;13.21;69.85
10587;BME280;5341;47.606;7.576;2023-02-18T03:18:17;99984.66;;;13.22;70.13
10587;BME280;5341;47.606;7.576;2023-02-18T03:20:52;99986.50;;;13.22;70.14
10587;BME280;5341;47.606;7.576;2023-02-18T03:23:27;99980.28;;;13.21;70.06
10587;BME280;5341;47.606;7.576;2023-02-18T03:25:56;99984.84;;;13.21;70.25
10587;BME280;5341;47.606;7.576;2023-02-18T03:28:26;99983.81;;;13.22;70.13
10587;BME280;5341;47.606;7.576;2023-02-18T03:31:00;99980.28;;;13.21;70.10
10587;BME280;5341;47.606;7.576;2023-02-18T03:33:34;99982.16;;;13.21;70.30
10587;BME280;5341;47.606;7.576;2023-02-18T03:36:03;99980.44;;;13.19;70.41
10587;BME280;5341;47.606;7.576;2023-02-18T03:38:35;99981.59;;;13.17;70.58
10587;BME280;5341;47.606;7.576;2023-02-18T03:41:04;99977.41;;;13.14;71.05
10587;BME280;5341;47.606;7.576;2023-02-18T03:43:33;99977.22;;;13.16;70.93
10587;BME280;5341;47.606;7.576;2023-02-18T03:46:01;99972.53;;;13.18;70.81
10587;BME280;5341;47.606;7.576;2023-02-18T03:48:29;99973.38;;;13.18;70.95
10587;BME280;5341;47.606;7.576;2023-02-18T03:50:57;99970.72;;;13.18;70.90
10587;BME280;5341;47.606;7.576;2023-02-18T03:53:24;99973.22;;;13.20;71.06
10587;BME280;5341;47.606;7.576;2023-02-18T03:55:53;99975.06;;;13.19;70.96
10587;BME280;5341;47.606;7.576;2023-02-18T03:58:21;99966.16;;;13.19;70.96
10587;BME280;5341;47.606;7.576;2023-02-18T04:00:48;99962.47;;;13.20;70.75
10587;BME280;5341;47.606;7.576;2023-02-18T04:03:15;99963.34;;;13.21;70.80
10587;BME280;5341;47.606;7.576;2023-02-18T04:05:43;99961.50;;;13.21;70.51
10587;BME280;5341;47.606;7.576;2023-02-18T04:08:11;99964.19;;;13.21;70.49
10587;BME280;5341;47.606;7.576;2023-02-18T04:10:38;99958.81;;;13.21;70.68
10587;BME280;5341;47.606;7.576;2023-02-18T04:13:07;99961.50;;;13.21;70.75
10587;BME280;5341;47.606;7.576;2023-02-18T04:15:34;99960.78;;;13.19;70.97
10587;BME280;5341;47.606;7.576;2023-02-18T04:18:02;99961.63;;;13.19;71.06
10587;BME280;5341;47.606;7.576;2023-02-18T04:20:29;99959.78;;;13.20;71.09
10587;BME280;5341;47.606;7.576;2023-02-18T04:22:57;99958.81;;;13.21;70.90
10587;BME280;5341;47.606;7.576;2023-02-18T04:25:24;99970.38;;;13.22;70.92
10587;BME280;5341;47.606;7.576;2023-02-18T04:27:52;99972.06;;;13.23;70.94
10587;BME280;5341;47.606;7.576;2023-02-18T04:30:22;99961.31;;;13.23;70.64
10587;BME280;5341;47.606;7.576;2023-02-18T04:32:52;99962.16;;;13.23;70.59
10587;BME280;5341;47.606;7.576;2023-02-18T04:35:19;99954.94;;;13.24;70.57
10587;BME280;5341;47.606;7.576;2023-02-18T04:37:47;99955.78;;;13.24;70.48
10587;BME280;5341;47.606;7.576;2023-02-18T04:40:15;99958.47;;;13.24;70.42
10587;BME280;5341;47.606;7.576;2023-02-18T04:42:43;99960.31;;;13.24;70.38
10587;BME280;5341;47.606;7.576;2023-02-18T04:45:10;99958.47;;;13.24;70.34
10587;BME280;5341;47.606;7.576;2023-02-18T04:47:39;99959.28;;;13.25;70.19
10587;BME280;5341;47.606;7.576;2023-02-18T04:50:08;99961.97;;;13.25;70.25
10587;BME280;5341;47.606;7.576;2023-02-18T04:52:37;99963.84;;;13.24;70.19
10587;BME280;5341;47.606;7.576;2023-02-18T04:55:05;99964.66;;;13.25;69.93
10587;BME280;5341;47.606;7.576;2023-02-18T04:57:32;99966.53;;;13.24;69.99
10587;BME280;5341;47.606;7.576;2023-02-18T05:00:00;99968.38;;;13.24;69.97
10587;BME280;5341;47.606;7.576;2023-02-18T05:02:32;99967.53;;;13.23;70.09
10587;BME280;5341;47.606;7.576;2023-02-18T05:05:01;99963.16;;;13.22;69.71
10587;BME280;5341;47.606;7.576;2023-02-18T05:07:29;99954.41;;;13.20;69.70
10587;BME280;5341;47.606;7.576;2023-02-18T05:09:56;99957.97;;;13.21;69.72
10587;BME280;5341;47.606;7.576;2023-02-18T05:12:24;99962.34;;;13.22;69.84
10587;BME280;5341;47.606;7.576;2023-02-18T05:14:51;99958.81;;;13.21;69.75
10587;BME280;5341;47.606;7.576;2023-02-18T05:17:18;99955.28;;;13.21;69.81
10587;BME280;5341;47.606;7.576;2023-02-18T05:19:46;99950.06;;;13.19;69.57
10587;BME280;5341;47.606;7.576;2023-02-18T05:22:15;99950.06;;;13.19;69.78
10587;BME280;5341;47.606;7.576;2023-02-18T05:24:42;99942.00;;;13.19;69.46
10587;BME280;5341;47.606;7.576;2023-02-18T05:27:10;99943.84;;;13.18;69.64
10587;BME280;5341;47.606;7.576;2023-02-18T05:29:37;99940.28;;;13.18;69.93
10587;BME280;5341;47.606;7.576;2023-02-18T05:32:05;99938.63;;;13.17;69.75
10587;BME280;5341;47.606;7.576;2023-02-18T05:34:32;99933.25;;;13.17;69.84
10587;BME280;5341;47.606;7.576;2023-02-18T05:36:59;99937.59;;;13.18;69.68
10587;BME280;5341;47.606;7.576;2023-02-18T05:39:28;99936.75;;;13.17;69.58
10587;BME280;5341;47.606;7.576;2023-02-18T05:41:55;99940.28;;;13.18;69.84
10587;BME280;5341;47.606;7.576;2023-02-18T05:44:23;99934.91;;;13.18;69.58
10587;BME280;5341;47.606;7.576;2023-02-18T05:46:57;99933.09;;;13.18;69.66
10587;BME280;5341;47.606;7.576;2023-02-18T05:49:25;99933.94;;;13.19;69.81
10587;BME280;5341;47.606;7.576;2023-02-18T05:51:52;99936.63;;;13.19;69.65
10587;BME280;5341;47.606;7.576;2023-02-18T05:54:20;99938.47;;;13.18;69.64
10587;BME280;5341;47.606;7.576;2023-02-18T05:56:49;99934.91;;;13.18;69.47
10587;BME280;5341;47.606;7.576;2023-02-18T05:59:17;99936.63;;;13.19;69.37
10587;BME280;5341;47.606;7.576;2023-02-18T06:01:46;99938.28;;;13.20;69.47
10587;BME280;5341;47.606;7.576;2023-02-18T06:04:14;99931.25;;;13.19;69.34
10587;BME280;5341;47.606;7.576;2023-02-18T06:06:43;99942.00;;;13.19;69.40
10587;BME280;5341;47.606;7.576;2023-02-18T06:09:12;99934.91;;;13.18;69.26
10587;BME280;5341;47.606;7.576;2023-02-18T06:11:46;99927.88;;;13.17;69.41
10587;BME280;5341;47.606;7.576;2023-02-18T06:14:17;99928.72;;;13.17;69.32
10587;BME280;5341;47.606;7.576;2023-02-18T06:16:44;99928.88;;;13.16;69.18
10587;BME280;5341;47.606;7.576;2023-02-18T06:19:13;99938.78;;;13.15;69.14
10587;BME280;5341;47.606;7.576;2023-02-18T06:21:43;99940.63;;;13.15;69.49
10587;BME280;5341;47.606;7.576;2023-02-18T06:24:11;99935.25;;;13.15;69.46
10587;BME280;5341;47.606;7.576;2023-02-18T06:26:39;99934.44;;;13.14;69.41
10587;BME280;5341;47.606;7.576;2023-02-18T06:29:06;99939.13;;;13.12;69.33
10587;BME280;5341;47.606;7.576;2023-02-18T06:31:35;99941.81;;;13.12;69.38
10587;BME280;5341;47.606;7.576;2023-02-18T06:34:02;99940.81;;;13.13;69.36
10587;BME280;5341;47.606;7.576;2023-02-18T06:36:30;99940.81;;;13.13;69.38
10587;BME280;5341;47.606;7.576;2023-02-18T06:38:58;99942.47;;;13.14;69.35
10587;BME280;5341;47.606;7.576;2023-02-18T06:41:25;99940.63;;;13.15;69.58
10587;BME280;5341;47.606;7.576;2023-02-18T06:43:53;99943.31;;;13.15;69.39
10587;BME280;5341;47.606;7.576;2023-02-18T06:46:21;99935.09;;;13.16;69.63
10587;BME280;5341;47.606;7.576;2023-02-18T06:48:50;99934.25;;;13.16;69.65
10587;BME280;5341;47.606;7.576;2023-02-18T06:51:18;99937.78;;;13.16;69.52
10587;BME280;5341;47.606;7.576;2023-02-18T06:53:45;99935.09;;;13.16;69.51
10587;BME280;5341;47.606;7.576;2023-02-18T06:56:15;99949.34;;;13.17;69.54
10587;BME280;5341;47.606;7.576;2023-02-18T06:58:46;99941.31;;;13.17;69.62
10587;BME280;5341;47.606;7.576;2023-02-18T07:01:16;99941.31;;;13.17;69.59
10587;BME280;5341;47.606;7.576;2023-02-18T07:03:44;99940.28;;;13.18;69.57
10587;BME280;5341;47.606;7.576;2023-02-18T07:06:13;99942.13;;;13.17;69.47
10587;BME280;5341;47.606;7.576;2023-02-18T07:08:41;99937.59;;;13.18;69.48
10587;BME280;5341;47.606;7.576;2023-02-18T07:11:08;99943.84;;;13.18;69.50
10587;BME280;5341;47.606;7.576;2023-02-18T07:13:36;99938.47;;;13.18;69.61
10587;BME280;5341;47.606;7.576;2023-02-18T07:16:04;99939.16;;;13.21;69.46
10587;BME280;5341;47.606;7.576;2023-02-18T07:18:31;99941.69;;;13.22;69.47
10587;BME280;5341;47.606;7.576;2023-02-18T07:20:59;99944.19;;;13.24;69.58
10587;BME280;5341;47.606;7.576;2023-02-18T07:23:28;99941.31;;;13.25;69.47
10587;BME280;5341;47.606;7.576;2023-02-18T07:26:03;99940.97;;;13.28;69.35
10587;BME280;5341;47.606;7.576;2023-02-18T07:28:30;99940.16;;;13.28;69.32
10587;BME280;5341;47.606;7.576;2023-02-18T07:30:58;99936.63;;;13.27;69.42
10587;BME280;5341;47.606;7.576;2023-02-18T07:33:25;99939.13;;;13.29;69.38
10587;BME280;5341;47.606;7.576;2023-02-18T07:35:53;99934.59;;;13.29;69.21
10587;BME280;5341;47.606;7.576;2023-02-18T07:38:20;99936.09;;;13.32;69.42
10587;BME280;5341;47.606;7.576;2023-02-18T07:40:50;99948.38;;;13.34;69.32
10587;BME280;5341;47.606;7.576;2023-02-18T07:43:18;99945.50;;;13.36;69.20
10587;BME280;5341;47.606;7.576;2023-02-18T07:45:46;99937.28;;;13.37;69.28
10587;BME280;5341;47.606;7.576;2023-02-18T07:48:15;99945.16;;;13.39;69.15
10587;BME280;5341;47.606;7.576;2023-02-18T07:50:44;99936.94;;;13.40;68.87
10587;BME280;5341;47.606;7.576;2023-02-18T07:53:13;99946.66;;;13.41;68.71
10587;BME280;5341;47.606;7.576;2023-02-18T07:55:41;99951.03;;;13.42;68.97
10587;BME280;5341;47.606;7.576;2023-02-18T07:58:21;99951.69;;;13.44;68.80
10587;BME280;5341;47.606;7.576;2023-02-18T08:00:50;99957.06;;;13.44;69.00
10587;BME280;5341;47.606;7.576;2023-02-18T08:03:19;99959.59;;;13.46;68.76
10587;BME280;5341;47.606;7.576;2023-02-18T08:05:48;99960.44;;;13.46;68.83
10587;BME280;5341;47.606;7.576;2023-02-18T08:08:18;99954.88;;;13.48;68.95
10587;BME280;5341;47.606;7.576;2023-02-18T08:10:47;99955.72;;;13.48;68.81
10587;BME280;5341;47.606;7.576;2023-02-18T08:13:14;99952.69;;;13.52;69.27
10587;BME280;5341;47.606;7.576;2023-02-18T08:15:43;99959.91;;;13.51;68.65
10587;BME280;5341;47.606;7.576;2023-02-18T08:18:14;99961.59;;;13.52;68.48
10587;BME280;5341;47.606;7.576;2023-02-18T08:20:42;99956.03;;;13.54;68.21
10587;BME280;5341;47.606;7.576;2023-02-18T08:23:10;99949.66;;;13.55;68.33
10587;BME280;5341;47.606;7.576;2023-02-18T08:25:37;99952.16;;;13.56;68.01
10587;BME280;5341;47.606;7.576;2023-02-18T08:28:04;99953.00;;;13.57;68.56
10587;BME280;5341;47.606;7.576;2023-02-18T08:30:32;99946.63;;;13.58;68.50
10587;BME280;5341;47.606;7.576;2023-02-18T08:33:01;99957.03;;;13.61;68.11
10587;BME280;5341;47.606;7.576;2023-02-18T08:35:28;99951.66;;;13.61;67.98
10587;BME280;5341;47.606;7.576;2023-02-18T08:37:58;99951.66;;;13.61;67.71
10587;BME280;5341;47.606;7.576;2023-02-18T08:40:25;99949.28;;;13.66;67.88
10587;BME280;5341;47.606;7.576;2023-02-18T08:42:53;99946.28;;;13.69;67.84
10587;BME280;5341;47.606;7.576;2023-02-18T08:45:20;99947.25;;;13.68;67.56
10587;BME280;5341;47.606;7.576;2023-02-18T08:47:47;99943.59;;;13.69;67.45
10587;BME280;5341;47.606;7.576;2023-02-18T08:50:16;99950.47;;;13.71;67.55
10587;BME280;5341;47.606;7.576;2023-02-18T08:52:45;99949.09;;;13.75;67.14
10587;BME280;5341;47.606;7.576;2023-02-18T08:55:13;99940.00;;;13.76;66.79
10587;BME280;5341;47.606;7.576;2023-02-18T08:57:40;99943.34;;;13.78;66.84
10587;BME280;5341;47.606;7.576;2023-02-18T09:00:09;99943.88;;;13.82;66.84
10587;BME280;5341;47.606;7.576;2023-02-18T09:02:36;99948.06;;;13.85;66.62
10587;BME280;5341;47.606;7.576;2023-02-18T09:05:04;99941.47;;;13.87;66.54
10587;BME280;5341;47.606;7.576;2023-02-18T09:07:34;99940.28;;;13.90;66.49
10587;BME280;5341;47.606;7.576;2023-02-18T09:10:02;99933.72;;;13.92;66.38
10587;BME280;5341;47.606;7.576;2023-02-18T09:12:30;99934.56;;;13.93;66.38
10587;BME280;5341;47.606;7.576;2023-02-18T09:14:58;99945.31;;;13.93;66.45
10587;BME280;5341;47.606;7.576;2023-02-18T09:17:26;99940.81;;;13.93;66.29
10587;BME280;5341;47.606;7.576;2023-02-18T09:19:53;99939.59;;;13.96;66.33
10587;BME280;5341;47.606;7.576;2023-02-18T09:22:21;99939.91;;;14.01;66.45
10587;BME280;5341;47.606;7.576;2023-02-18T09:24:56;99943.44;;;14.01;66.32
10587;BME280;5341;47.606;7.576;2023-02-18T09:27:25;99939.53;;;14.04;66.45
10587;BME280;5341;47.606;7.576;2023-02-18T09:29:53;99942.94;;;14.06;66.38
10587;BME280;5341;47.606;7.576;2023-02-18T09:32:21;99942.38;;;14.11;66.21
10587;BME280;5341;47.606;7.576;2023-02-18T09:34:49;99951.59;;;14.16;66.24
10587;BME280;5341;47.606;7.576;2023-02-18T09:37:18;99953.94;;;14.19;66.33
10587;BME280;5341;47.606;7.576;2023-02-18T09:39:46;99953.22;;;14.25;66.19
10587;BME280;5341;47.606;7.576;2023-02-18T09:42:17;99951.69;;;14.31;66.10
10587;BME280;5341;47.606;7.576;2023-02-18T09:44:49;99958.09;;;14.30;65.62
10587;BME280;5341;47.606;7.576;2023-02-18T09:47:26;99952.88;;;14.28;65.75
10587;BME280;5341;47.606;7.576;2023-02-18T09:49:59;99962.47;;;14.31;65.43
10587;BME280;5341;47.606;7.576;2023-02-18T09:52:33;99945.47;;;14.30;65.16
10587;BME280;5341;47.606;7.576;2023-02-18T09:55:16;99955.69;;;14.35;65.43
10587;BME280;5341;47.606;7.576;2023-02-18T09:57:48;99952.66;;;14.38;65.72
10587;BME280;5341;47.606;7.576;2023-02-18T10:00:19;99954.69;;;14.44;65.31
10587;BME280;5341;47.606;7.576;2023-02-18T10:02:53;99960.91;;;14.45;65.21
10587;BME280;5341;47.606;7.576;2023-02-18T10:05:26;99954.50;;;14.46;64.95
10587;BME280;5341;47.606;7.576;2023-02-18T10:07:57;99954.31;;;14.47;64.85
10587;BME280;5341;47.606;7.576;2023-02-18T10:10:36;99954.78;;;14.51;64.83
10587;BME280;5341;47.606;7.576;2023-02-18T10:13:12;99960.00;;;14.52;64.54
10587;BME280;5341;47.606;7.576;2023-02-18T10:15:41;99951.91;;;14.52;64.63
10587;BME280;5341;47.606;7.576;2023-02-18T10:18:20;99956.13;;;14.55;64.89
10587;BME280;5341;47.606;7.576;2023-02-18T10:20:51;99956.97;;;14.55;64.51
10587;BME280;5341;47.606;7.576;2023-02-18T10:23:19;99955.44;;;14.53;64.41
10587;BME280;5341;47.606;7.576;2023-02-18T10:25:48;99958.97;;;14.53;64.65
10587;BME280;5341;47.606;7.576;2023-02-18T10:28:18;99956.13;;;14.55;64.67
10587;BME280;5341;47.606;7.576;2023-02-18T10:30:53;99958.81;;;14.55;64.67
10587;BME280;5341;47.606;7.576;2023-02-18T10:33:33;99960.69;;;14.54;64.42
10587;BME280;5341;47.606;7.576;2023-02-18T10:36:10;99954.59;;;14.52;64.26
10587;BME280;5341;47.606;7.576;2023-02-18T10:38:44;99958.50;;;14.50;64.25
10587;BME280;5341;47.606;7.576;2023-02-18T10:41:24;99959.16;;;14.52;64.17
10587;BME280;5341;47.606;7.576;2023-02-18T10:43:58;99961.19;;;14.50;63.93
10587;BME280;5341;47.606;7.576;2023-02-18T10:46:36;99955.44;;;14.53;64.02
10587;BME280;5341;47.606;7.576;2023-02-18T10:49:24;99957.31;;;14.52;63.96
10587;BME280;5341;47.606;7.576;2023-02-18T10:51:55;99952.09;;;14.51;64.01
10587;BME280;5341;47.606;7.576;2023-02-18T10:54:25;99950.06;;;14.53;63.96
10587;BME280;5341;47.606;7.576;2023-02-18T10:56:57;99944.69;;;14.53;63.68
10587;BME280;5341;47.606;7.576;2023-02-18T10:59:31;99944.69;;;14.53;63.56
10587;BME280;5341;47.606;7.576;2023-02-18T11:02:01;99937.81;;;14.50;63.15
10587;BME280;5341;47.606;7.576;2023-02-18T11:04:36;99941.97;;;14.53;63.23
10587;BME280;5341;47.606;7.576;2023-02-18T11:07:07;99933.75;;;14.54;63.37
10587;BME280;5341;47.606;7.576;2023-02-18T11:09:40;99924.47;;;14.57;63.17
10587;BME280;5341;47.606;7.576;2023-02-18T11:12:14;99918.91;;;14.58;63.33
10587;BME280;5341;47.606;7.576;2023-02-18T11:14:46;99913.81;;;14.63;63.01
10587;BME280;5341;47.606;7.576;2023-02-18T11:17:21;99909.06;;;14.65;62.95
10587;BME280;5341;47.606;7.576;2023-02-18T11:19:54;99896.31;;;14.68;63.09
10587;BME280;5341;47.606;7.576;2023-02-18T11:22:23;99894.06;;;14.71;62.95
10587;BME280;5341;47.606;7.576;2023-02-18T11:24:54;99897.22;;;14.75;62.76
10587;BME280;5341;47.606;7.576;2023-02-18T11:27:25;99894.34;;;14.76;62.56
10587;BME280;5341;47.606;7.576;2023-02-18T11:29:59;99884.06;;;14.80;62.72
10587;BME280;5341;47.606;7.576;2023-02-18T11:32:28;99888.44;;;14.81;62.30
10587;BME280;5341;47.606;7.576;2023-02-18T11:34:57;99882.03;;;14.82;62.07
10587;BME280;5341;47.606;7.576;2023-02-18T11:37:24;99884.53;;;14.83;62.17
10587;BME280;5341;47.606;7.576;2023-02-18T11:39:53;99876.47;;;14.83;61.69
10587;BME280;5341;47.606;7.576;2023-02-18T11:42:24;99874.78;;;14.82;61.59
10587;BME280;5341;47.606;7.576;2023-02-18T11:44:54;99865.50;;;14.85;61.83
10587;BME280;5341;47.606;7.576;2023-02-18T11:47:26;99854.53;;;14.86;61.42
10587;BME280;5341;47.606;7.576;2023-02-18T11:50:14;99865.13;;;14.88;61.47
10587;BME280;5341;47.606;7.576;2023-02-18T11:52:46;99866.81;;;14.89;61.53
10587;BME280;5341;47.606;7.576;2023-02-18T11:55:17;99864.94;;;14.89;61.18
10587;BME280;5341;47.606;7.576;2023-02-18T11:57:49;99855.00;;;14.90;61.47
10587;BME280;5341;47.606;7.576;2023-02-18T12:00:24;99869.16;;;14.92;61.60
10587;BME280;5341;47.606;7.576;2023-02-18T12:03:02;99860.22;;;14.91;61.17
10587;BME280;5341;47.606;7.576;2023-02-18T12:05:31;99858.72;;;14.89;61.15
10587;BME280;5341;47.606;7.576;2023-02-18T12:08:04;99859.41;;;14.91;61.43
10587;BME280;5341;47.606;7.576;2023-02-18T12:10:37;99844.06;;;14.91;61.27
10587;BME280;5341;47.606;7.576;2023-02-18T12:13:16;99848.63;;;14.91;61.39
10587;BME280;5341;47.606;7.576;2023-02-18T12:15:52;99846.41;;;14.94;61.58
10587;BME280;5341;47.606;7.576;2023-02-18T12:18:35;99844.34;;;14.97;61.69
10587;BME280;5341;47.606;7.576;2023-02-18T12:21:15;99842.50;;;14.97;61.36
10587;BME280;5341;47.606;7.576;2023-02-18T12:23:55;99839.34;;;14.93;61.22
10587;BME280;5341;47.606;7.576;2023-02-18T12:26:27;99845.56;;;14.94;61.40
10587;BME280;5341;47.606;7.576;2023-02-18T12:29:16;99832.94;;;14.94;61.37
10587;BME280;5341;47.606;7.576;2023-02-18T12:32:06;99825.94;;;15.00;61.49
10587;BME280;5341;47.606;7.576;2023-02-18T12:34:46;99824.59;;;15.04;61.58
10587;BME280;5341;47.606;7.576;2023-02-18T12:37:43;99825.22;;;15.06;61.45
10587;BME280;5341;47.606;7.576;2023-02-18T12:40:32;99816.94;;;15.08;61.13
10587;BME280;5341;47.606;7.576;2023-02-18T12:43:12;99812.22;;;15.10;61.42
10587;BME280;5341;47.606;7.576;2023-02-18T12:46:01;99806.44;;;15.13;61.23
10587;BME280;5341;47.606;7.576;2023-02-18T12:48:50;99808.13;;;15.14;60.60
10587;BME280;5341;47.606;7.576;2023-02-18T12:51:31;99811.69;;;15.14;60.50
10587;BME280;5341;47.606;7.576;2023-02-18T12:54:17;99806.09;;;15.16;60.43
10587;BME280;5341;47.606;7.576;2023-02-18T12:56:57;99815.66;;;15.18;60.44
10587;BME280;5341;47.606;7.576;2023-02-18T12:59:44;99811.09;;;15.19;60.30
10587;BME280;5341;47.606;7.576;2023-02-18T13:02:26;99804.31;;;15.23;60.22
10587;BME280;5341;47.606;7.576;2023-02-18T13:05:03;99798.38;;;15.28;60.33
10587;BME280;5341;47.606;7.576;2023-02-18T13:07:49;99800.50;;;15.32;60.38
10587;BME280;5341;47.606;7.576;2023-02-18T13:13:12;99795.75;;;15.34;59.79
10587;BME280;5341;47.606;7.576;2023-02-18T13:15:42;99787.47;;;15.36;59.92
10587;BME280;5341;47.606;7.576;2023-02-18T13:18:12;99785.41;;;15.38;59.81
10587;BME280;5341;47.606;7.576;2023-02-18T13:20:44;99782.72;;;15.38;59.36
10587;BME280;5341;47.606;7.576;2023-02-18T13:23:17;99779.28;;;15.44;59.75
10587;BME280;5341;47.606;7.576;2023-02-18T13:25:46;99775.19;;;15.48;59.63
10587;BME280;5341;47.606;7.576;2023-02-18T13:28:22;99775.28;;;15.54;59.66
10587;BME280;5341;47.606;7.576;2023-02-18T13:31:01;99774.63;;;15.67;59.41
10587;BME280;5341;47.606;7.576;2023-02-18T13:33:37;99766.25;;;15.77;58.98
10587;BME280;5341;47.606;7.576;2023-02-18T13:36:08;99774.19;;;15.85;59.02
10587;BME280;5341;47.606;7.576;2023-02-18T13:38:52;99765.53;;;15.90;58.30